Archival Weather

Chicago O'Hare International

Chicago, Illinois (KORD)

Report from: Wednesday, September 6, 2023 1:51 AM CDT
Current time: Wednesday, May 29, 2024 6:56 PM CDT

Current weather – Weather history – Daily summaries
Weather forecast

Temperature25.0°C (77.0°F)
Dew point22.2°C (72.0°F)
Winds 10 kts (5.1 m/s, 11.5 mph) South-Southwest (200°)
Wind gusts 18 kts (9.3 m/s, 20.7 mph)
Visibility10 mi. (16.1 km)
Clouds Ceiling: Broken clouds 1,600 ft. (488 m)
Broken clouds 8,000 ft. (2,438 m)
Broken clouds 13,000 ft. (3,962 m)
Altimeter29.79 in.Hg (1009 mB)
Relative humidity85 %
Density altitude1,695 ft. (517 m)
Sea-level pressure100.8 kPa (1008 mB, 29.77 in.Hg)
Remarks Automated weather observing station with precipitation discriminator
Flight conditions Marginal Visual Meteorological Conditions
Raw dataKORD 060651Z 20010G18KT 10SM BKN016 BKN080 BKN130 25/22 A2979 RMK AO2 SLP080 T02500222
An error has occurred. This application may no longer respond until reloaded. Reload 🗙